Mc Intosh, New Mexico
Current Conditions -  °F | °C
As of 4:35 AM on Friday 31 Oct 2014 (Local Time) from K0E0 Reporting Station
Clear Clear  
Wind Chill: 19°   Ceiling: Unl
Heat Index: 25°   Visibility: 10mi
Dew Point: 16°   Wind: 5mph
Humidity: 68%   Direction: 360°N
Pressure: 30.44"   Gusts: NA
Location:  34.864°N, 106.052°W
Report Text: K0E0 311035Z AUTO 36004KT 10SM CLR M04/M09 A3044 RMK AO2 T10381090
Loading
Personal Weather Stations






























Interactive Weather Map
Tropical Storm Tracking
New forecast layout! Learn more

10-Day Weather Forecast

Advertisements
Track Severe Weather on mobile